Comanche, TX (76442)

1:31 AM CDT on September 22, 2014 (GMT -0500)
Comanche | Change Station
CLOSE
Current Station
Airport
Location: Comanche,
Elevation: 1388 ft
Nearby Weather Stations

Elev 1388 ft 31.92 °N, 98.60 °W | Updated 16 minutes ago

Clear
Clear
73 °F
Feels Like 73 °F
N
0
Wind Variable Wind from North

Today
High -- | Low -- °F
--% Chance of Precip.
Yesterday
High -- | Low -- °F
Precip. -- in
7:22 AM 7:31 PM
Waning Crescent, 4% visible
Pressure 30.14 in
Visibility 10.0 miles
Clouds Clear
Dew Point 64 °F
Humidity 73%
Rainfall 0.00 in
Snow Depth Not available.
UV 0 out of 12
Pollen 10.20 out of 12
Air Quality Not available.
Flu Activity Not available.
METAR KMKN 220615Z AUTO 00000KT 10SM CLR 23/18 A3014 RMK AO2 T02260175

More Conditions Fewer Conditions

Pressure 30.14 in
Visibility 10.0 miles
Clouds Clear
Dew Point 64 °F
Humidity 73%
Rainfall 0.00 in
Snow Depth Not available.
UV 0 out of 12
Pollen 10.20 out of 12
Air Quality Not available.
Flu Activity Not available.
METAR KMKN 220615Z AUTO 00000KT 10SM CLR 23/18 A3014 RMK AO2 T02260175

More Conditions Fewer Conditions

Nowcast | as of 12:49 am CDT on September 22, 2014

A weak cold front will continue to move through the Interstate 20 corridor through 3 a.M with winds shifting northeast at 5 to 10 mph. Behind the cold front...a few showers will occur producing light amounts of rainfall below 1/10 of an inch. Elsewhere...periods of high cloudiness will continue with light winds. Temperatures behind the cold front will gradually fall into the 60s through the pre dawn hours. Ahead of the front...low to mid 70s will rule with near calm winds.

×

10-Day Weather Forecast

Almanac

Astronomy

Sep. 22, 2014 Rise Set
Actual Time 7:22 AM CDT 7:31 PM CDT
Civil Twilight 6:58 AM CDT 7:55 PM CDT
Nautical Twilight 6:29 AM CDT 8:23 PM CDT
Astronomical Twilight 6:01 AM CDT 8:52 PM CDT
Moon 5:56 AM CDT 6:37 PM CDT
Length of Visible Light 12h 57m
Length of Day
12h 08m
Tomorrow will be 1m 57s shorter.
Waning Crescent, 4% of the Moon is Illuminated
Today
Waning Crescent
Sep 24
New
Oct 1
First Quarter
Oct 8
Full
Oct 15
Last Quarter

Today's Extremes

State Highs State Lows

Community

WunderPhotos

Upload Photos

1,755,392 photos uploaded!

Nearby

Snow Depth

Station Depth Elevation
No new snow has been reported.

Earthquake Activity

City Distance Mag. Time & Date
No recent earthquake activity has been reported nearby.
Minimum magnitude displayed is 2.5.

Coastal Water Temperatures

Place Temperature
No Stations Reporting

Nearby Weather Stations